sensor_id;sensor_type;location;lat;lon;timestamp;P1;durP1;ratioP1;P2;durP2;ratioP2
22282;SDS011;11310;51.528;21.204;2023-06-24T14:14:59;4.97;;;2.80;;
22282;SDS011;11310;51.528;21.204;2023-06-24T14:17:31;5.15;;;2.85;;
22282;SDS011;11310;51.528;21.204;2023-06-24T14:20:03;4.57;;;2.88;;
22282;SDS011;11310;51.528;21.204;2023-06-24T14:22:33;5.75;;;2.85;;
22282;SDS011;11310;51.528;21.204;2023-06-24T14:25:03;10.02;;;3.13;;
22282;SDS011;11310;51.528;21.204;2023-06-24T14:27:32;11.95;;;3.45;;
22282;SDS011;11310;51.528;21.204;2023-06-24T14:30:07;7.72;;;3.80;;
22282;SDS011;11310;51.528;21.204;2023-06-24T14:32:40;5.38;;;2.90;;
22282;SDS011;11310;51.528;21.204;2023-06-24T14:35:09;8.13;;;3.28;;
22282;SDS011;11310;51.528;21.204;2023-06-24T14:37:38;5.75;;;3.35;;
22282;SDS011;11310;51.528;21.204;2023-06-24T14:40:11;6.00;;;3.58;;
22282;SDS011;11310;51.528;21.204;2023-06-24T14:42:40;6.70;;;3.17;;
22282;SDS011;11310;51.528;21.204;2023-06-24T14:45:10;8.02;;;3.55;;
22282;SDS011;11310;51.528;21.204;2023-06-24T14:47:39;9.73;;;3.35;;
22282;SDS011;11310;51.528;21.204;2023-06-24T14:50:09;8.50;;;3.88;;
22282;SDS011;11310;51.528;21.204;2023-06-24T14:52:38;8.35;;;3.58;;
22282;SDS011;11310;51.528;21.204;2023-06-24T14:55:06;7.40;;;3.40;;
22282;SDS011;11310;51.528;21.204;2023-06-24T14:57:36;6.85;;;3.67;;
22282;SDS011;11310;51.528;21.204;2023-06-24T15:00:11;8.88;;;3.78;;
22282;SDS011;11310;51.528;21.204;2023-06-24T15:02:41;8.73;;;3.58;;
22282;SDS011;11310;51.528;21.204;2023-06-24T15:05:09;6.05;;;3.30;;
22282;SDS011;11310;51.528;21.204;2023-06-24T15:07:39;6.78;;;3.72;;
22282;SDS011;11310;51.528;21.204;2023-06-24T15:10:08;6.97;;;3.13;;
22282;SDS011;11310;51.528;21.204;2023-06-24T15:12:36;11.82;;;4.10;;
22282;SDS011;11310;51.528;21.204;2023-06-24T15:15:06;8.05;;;4.07;;
22282;SDS011;11310;51.528;21.204;2023-06-24T15:17:37;5.78;;;3.20;;
22282;SDS011;11310;51.528;21.204;2023-06-24T15:22:36;10.02;;;3.63;;
22282;SDS011;11310;51.528;21.204;2023-06-24T15:25:06;9.85;;;3.80;;
22282;SDS011;11310;51.528;21.204;2023-06-24T15:27:35;8.57;;;3.65;;
22282;SDS011;11310;51.528;21.204;2023-06-24T15:30:04;9.55;;;4.30;;
22282;SDS011;11310;51.528;21.204;2023-06-24T15:32:33;11.50;;;4.00;;
22282;SDS011;11310;51.528;21.204;2023-06-24T15:35:04;19.80;;;5.20;;
22282;SDS011;11310;51.528;21.204;2023-06-24T15:37:33;26.25;;;5.78;;
22282;SDS011;11310;51.528;21.204;2023-06-24T15:40:02;10.32;;;3.33;;
22282;SDS011;11310;51.528;21.204;2023-06-24T15:42:33;6.32;;;2.50;;
22282;SDS011;11310;51.528;21.204;2023-06-24T15:45:05;9.38;;;2.40;;
22282;SDS011;11310;51.528;21.204;2023-06-24T15:47:34;5.70;;;2.80;;
22282;SDS011;11310;51.528;21.204;2023-06-24T15:50:07;5.18;;;2.63;;
22282;SDS011;11310;51.528;21.204;2023-06-24T15:52:37;6.07;;;2.50;;
22282;SDS011;11310;51.528;21.204;2023-06-24T15:55:10;6.22;;;2.80;;
22282;SDS011;11310;51.528;21.204;2023-06-24T15:57:39;4.47;;;2.45;;
22282;SDS011;11310;51.528;21.204;2023-06-24T16:00:08;4.95;;;2.60;;
22282;SDS011;11310;51.528;21.204;2023-06-24T16:02:38;6.18;;;2.95;;
22282;SDS011;11310;51.528;21.204;2023-06-24T16:05:10;6.55;;;3.05;;
22282;SDS011;11310;51.528;21.204;2023-06-24T16:07:39;4.28;;;2.30;;
22282;SDS011;11310;51.528;21.204;2023-06-24T16:10:08;7.00;;;2.88;;
22282;SDS011;11310;51.528;21.204;2023-06-24T16:12:37;5.03;;;2.33;;
22282;SDS011;11310;51.528;21.204;2023-06-24T16:15:06;6.53;;;3.25;;
22282;SDS011;11310;51.528;21.204;2023-06-24T16:17:35;8.13;;;3.17;;
22282;SDS011;11310;51.528;21.204;2023-06-24T16:20:05;9.90;;;2.88;;
22282;SDS011;11310;51.528;21.204;2023-06-24T16:22:35;5.78;;;3.00;;
22282;SDS011;11310;51.528;21.204;2023-06-24T16:25:04;9.63;;;3.50;;
22282;SDS011;11310;51.528;21.204;2023-06-24T16:27:33;6.13;;;3.05;;
22282;SDS011;11310;51.528;21.204;2023-06-24T16:30:01;8.45;;;3.42;;
22282;SDS011;11310;51.528;21.204;2023-06-24T16:32:31;7.30;;;3.35;;
22282;SDS011;11310;51.528;21.204;2023-06-24T16:35:01;6.93;;;3.47;;
22282;SDS011;11310;51.528;21.204;2023-06-24T16:37:29;5.55;;;3.33;;
22282;SDS011;11310;51.528;21.204;2023-06-24T16:39:59;10.10;;;4.00;;
22282;SDS011;11310;51.528;21.204;2023-06-24T16:42:29;8.73;;;3.60;;
22282;SDS011;11310;51.528;21.204;2023-06-24T16:45:05;6.20;;;3.00;;
22282;SDS011;11310;51.528;21.204;2023-06-24T16:47:35;7.22;;;3.28;;
22282;SDS011;11310;51.528;21.204;2023-06-24T16:50:04;6.70;;;3.28;;
22282;SDS011;11310;51.528;21.204;2023-06-24T16:52:33;6.75;;;3.88;;
22282;SDS011;11310;51.528;21.204;2023-06-24T16:55:04;7.82;;;3.20;;
22282;SDS011;11310;51.528;21.204;2023-06-24T16:57:33;6.57;;;3.03;;
22282;SDS011;11310;51.528;21.204;2023-06-24T17:00:02;7.32;;;3.20;;
22282;SDS011;11310;51.528;21.204;2023-06-24T17:02:31;5.85;;;2.83;;
22282;SDS011;11310;51.528;21.204;2023-06-24T17:05:01;7.85;;;2.92;;
22282;SDS011;11310;51.528;21.204;2023-06-24T17:07:32;8.32;;;3.13;;
22282;SDS011;11310;51.528;21.204;2023-06-24T17:10:01;6.32;;;2.83;;
22282;SDS011;11310;51.528;21.204;2023-06-24T17:12:32;7.53;;;2.92;;
22282;SDS011;11310;51.528;21.204;2023-06-24T17:15:02;6.00;;;3.35;;
22282;SDS011;11310;51.528;21.204;2023-06-24T17:17:34;5.80;;;3.00;;
22282;SDS011;11310;51.528;21.204;2023-06-24T17:20:05;9.25;;;3.17;;
22282;SDS011;11310;51.528;21.204;2023-06-24T17:22:35;6.38;;;3.05;;
22282;SDS011;11310;51.528;21.204;2023-06-24T17:25:04;8.18;;;3.10;;
22282;SDS011;11310;51.528;21.204;2023-06-24T17:27:35;8.43;;;3.42;;
22282;SDS011;11310;51.528;21.204;2023-06-24T17:30:04;5.93;;;2.90;;
22282;SDS011;11310;51.528;21.204;2023-06-24T17:32:34;5.97;;;3.03;;
22282;SDS011;11310;51.528;21.204;2023-06-24T17:35:04;5.75;;;3.10;;
22282;SDS011;11310;51.528;21.204;2023-06-24T17:37:33;6.30;;;3.17;;
22282;SDS011;11310;51.528;21.204;2023-06-24T17:40:02;6.00;;;2.83;;
22282;SDS011;11310;51.528;21.204;2023-06-24T17:42:35;6.53;;;3.17;;
22282;SDS011;11310;51.528;21.204;2023-06-24T17:45:05;4.80;;;2.80;;
22282;SDS011;11310;51.528;21.204;2023-06-24T17:47:35;6.13;;;2.97;;
22282;SDS011;11310;51.528;21.204;2023-06-24T17:50:14;9.70;;;3.35;;
22282;SDS011;11310;51.528;21.204;2023-06-24T17:52:43;5.57;;;2.85;;
22282;SDS011;11310;51.528;21.204;2023-06-24T17:55:12;9.43;;;3.10;;
22282;SDS011;11310;51.528;21.204;2023-06-24T17:57:42;7.05;;;2.78;;
22282;SDS011;11310;51.528;21.204;2023-06-24T18:00:12;6.10;;;2.80;;
22282;SDS011;11310;51.528;21.204;2023-06-24T18:02:42;6.43;;;2.83;;
22282;SDS011;11310;51.528;21.204;2023-06-24T18:05:11;6.40;;;2.75;;
22282;SDS011;11310;51.528;21.204;2023-06-24T18:07:40;5.97;;;3.30;;
22282;SDS011;11310;51.528;21.204;2023-06-24T18:10:09;7.50;;;2.88;;
22282;SDS011;11310;51.528;21.204;2023-06-24T18:12:38;8.88;;;3.55;;
22282;SDS011;11310;51.528;21.204;2023-06-24T18:15:10;7.43;;;3.40;;
22282;SDS011;11310;51.528;21.204;2023-06-24T18:17:40;8.85;;;3.85;;
22282;SDS011;11310;51.528;21.204;2023-06-24T18:20:11;5.72;;;2.95;;
22282;SDS011;11310;51.528;21.204;2023-06-24T18:22:40;5.82;;;3.20;;
22282;SDS011;11310;51.528;21.204;2023-06-24T18:25:09;5.50;;;2.90;;
22282;SDS011;11310;51.528;21.204;2023-06-24T18:27:37;10.13;;;3.30;;
22282;SDS011;11310;51.528;21.204;2023-06-24T18:30:10;7.07;;;3.38;;
22282;SDS011;11310;51.528;21.204;2023-06-24T18:32:39;7.72;;;3.28;;
22282;SDS011;11310;51.528;21.204;2023-06-24T18:37:40;5.38;;;2.90;;
22282;SDS011;11310;51.528;21.204;2023-06-24T18:40:09;7.22;;;3.30;;
22282;SDS011;11310;51.528;21.204;2023-06-24T18:42:39;6.72;;;3.50;;
22282;SDS011;11310;51.528;21.204;2023-06-24T18:45:11;7.68;;;3.45;;
22282;SDS011;11310;51.528;21.204;2023-06-24T18:47:40;5.53;;;2.85;;
22282;SDS011;11310;51.528;21.204;2023-06-24T18:50:09;6.00;;;3.35;;
22282;SDS011;11310;51.528;21.204;2023-06-24T18:52:38;6.00;;;3.22;;
22282;SDS011;11310;51.528;21.204;2023-06-24T18:55:11;7.57;;;3.20;;
22282;SDS011;11310;51.528;21.204;2023-06-24T18:57:40;7.68;;;3.35;;
22282;SDS011;11310;51.528;21.204;2023-06-24T19:00:11;8.70;;;3.40;;
22282;SDS011;11310;51.528;21.204;2023-06-24T19:02:41;6.65;;;3.33;;
22282;SDS011;11310;51.528;21.204;2023-06-24T19:05:14;6.35;;;3.10;;
22282;SDS011;11310;51.528;21.204;2023-06-24T19:07:43;9.23;;;4.28;;
22282;SDS011;11310;51.528;21.204;2023-06-24T19:10:12;5.90;;;3.28;;
22282;SDS011;11310;51.528;21.204;2023-06-24T19:12:40;6.15;;;3.38;;
22282;SDS011;11310;51.528;21.204;2023-06-24T19:15:11;10.00;;;3.50;;
22282;SDS011;11310;51.528;21.204;2023-06-24T19:17:39;7.22;;;3.17;;
22282;SDS011;11310;51.528;21.204;2023-06-24T19:20:09;5.00;;;2.88;;
22282;SDS011;11310;51.528;21.204;2023-06-24T19:22:39;11.05;;;3.55;;
22282;SDS011;11310;51.528;21.204;2023-06-24T19:25:10;12.13;;;5.57;;
22282;SDS011;11310;51.528;21.204;2023-06-24T19:27:39;7.10;;;4.10;;
22282;SDS011;11310;51.528;21.204;2023-06-24T19:30:08;9.05;;;4.95;;
22282;SDS011;11310;51.528;21.204;2023-06-24T19:32:39;7.72;;;3.72;;
22282;SDS011;11310;51.528;21.204;2023-06-24T19:35:12;7.80;;;4.00;;
22282;SDS011;11310;51.528;21.204;2023-06-24T19:37:41;8.27;;;5.43;;
22282;SDS011;11310;51.528;21.204;2023-06-24T19:40:12;10.10;;;4.03;;
22282;SDS011;11310;51.528;21.204;2023-06-24T19:42:43;8.40;;;4.07;;
22282;SDS011;11310;51.528;21.204;2023-06-24T19:45:13;8.75;;;4.10;;
22282;SDS011;11310;51.528;21.204;2023-06-24T19:47:43;6.60;;;3.47;;
22282;SDS011;11310;51.528;21.204;2023-06-24T19:50:12;8.43;;;3.78;;
22282;SDS011;11310;51.528;21.204;2023-06-24T19:52:41;7.03;;;3.65;;
22282;SDS011;11310;51.528;21.204;2023-06-24T19:55:19;9.05;;;4.13;;
22282;SDS011;11310;51.528;21.204;2023-06-24T19:57:52;8.10;;;3.88;;
22282;SDS011;11310;51.528;21.204;2023-06-24T20:02:51;10.52;;;3.90;;
22282;SDS011;11310;51.528;21.204;2023-06-24T20:05:25;9.32;;;4.00;;
22282;SDS011;11310;51.528;21.204;2023-06-24T20:07:54;7.45;;;4.10;;
22282;SDS011;11310;51.528;21.204;2023-06-24T20:10:24;7.55;;;3.83;;
22282;SDS011;11310;51.528;21.204;2023-06-24T20:12:53;8.85;;;4.15;;
22282;SDS011;11310;51.528;21.204;2023-06-24T20:15:23;7.22;;;4.07;;
22282;SDS011;11310;51.528;21.204;2023-06-24T20:17:52;8.63;;;4.05;;
22282;SDS011;11310;51.528;21.204;2023-06-24T20:20:21;8.85;;;4.32;;
22282;SDS011;11310;51.528;21.204;2023-06-24T20:22:50;11.35;;;4.75;;
22282;SDS011;11310;51.528;21.204;2023-06-24T20:25:19;7.75;;;4.10;;
22282;SDS011;11310;51.528;21.204;2023-06-24T20:27:48;6.95;;;4.00;;
22282;SDS011;11310;51.528;21.204;2023-06-24T20:30:17;8.90;;;4.50;;
22282;SDS011;11310;51.528;21.204;2023-06-24T20:32:48;9.35;;;4.70;;
22282;SDS011;11310;51.528;21.204;2023-06-24T20:35:17;8.98;;;4.65;;
22282;SDS011;11310;51.528;21.204;2023-06-24T20:37:45;8.95;;;4.30;;
22282;SDS011;11310;51.528;21.204;2023-06-24T20:40:14;8.73;;;4.57;;
22282;SDS011;11310;51.528;21.204;2023-06-24T20:42:43;8.50;;;4.10;;
22282;SDS011;11310;51.528;21.204;2023-06-24T20:45:12;8.57;;;4.63;;
22282;SDS011;11310;51.528;21.204;2023-06-24T20:47:43;8.45;;;4.30;;
22282;SDS011;11310;51.528;21.204;2023-06-24T20:50:18;10.18;;;4.97;;
22282;SDS011;11310;51.528;21.204;2023-06-24T20:52:47;8.95;;;4.78;;
22282;SDS011;11310;51.528;21.204;2023-06-24T20:55:17;9.30;;;4.88;;
22282;SDS011;11310;51.528;21.204;2023-06-24T20:57:45;7.25;;;4.32;;
22282;SDS011;11310;51.528;21.204;2023-06-24T21:00:15;9.40;;;4.15;;
22282;SDS011;11310;51.528;21.204;2023-06-24T21:02:44;8.75;;;4.63;;
22282;SDS011;11310;51.528;21.204;2023-06-24T21:05:13;10.05;;;4.47;;
22282;SDS011;11310;51.528;21.204;2023-06-24T21:07:44;7.47;;;4.15;;
22282;SDS011;11310;51.528;21.204;2023-06-24T21:10:13;8.25;;;4.70;;
22282;SDS011;11310;51.528;21.204;2023-06-24T21:12:43;9.30;;;4.70;;
22282;SDS011;11310;51.528;21.204;2023-06-24T21:15:25;8.73;;;4.97;;
22282;SDS011;11310;51.528;21.204;2023-06-24T21:17:53;8.70;;;4.32;;
22282;SDS011;11310;51.528;21.204;2023-06-24T21:20:23;8.90;;;4.82;;
22282;SDS011;11310;51.528;21.204;2023-06-24T21:22:53;8.60;;;4.35;;
22282;SDS011;11310;51.528;21.204;2023-06-24T21:25:21;11.55;;;4.63;;
22282;SDS011;11310;51.528;21.204;2023-06-24T21:27:50;9.80;;;4.47;;
22282;SDS011;11310;51.528;21.204;2023-06-24T21:30:19;9.23;;;4.47;;
22282;SDS011;11310;51.528;21.204;2023-06-24T21:32:47;8.88;;;4.90;;
22282;SDS011;11310;51.528;21.204;2023-06-24T21:35:16;9.52;;;4.55;;
22282;SDS011;11310;51.528;21.204;2023-06-24T21:37:45;11.65;;;4.72;;
22282;SDS011;11310;51.528;21.204;2023-06-24T21:40:15;11.50;;;4.50;;
22282;SDS011;11310;51.528;21.204;2023-06-24T21:42:45;10.65;;;5.07;;
22282;SDS011;11310;51.528;21.204;2023-06-24T21:45:17;10.32;;;5.10;;
22282;SDS011;11310;51.528;21.204;2023-06-24T21:47:46;8.63;;;4.80;;
22282;SDS011;11310;51.528;21.204;2023-06-24T21:50:15;10.98;;;5.35;;
22282;SDS011;11310;51.528;21.204;2023-06-24T21:52:46;9.60;;;4.82;;
22282;SDS011;11310;51.528;21.204;2023-06-24T21:55:17;11.47;;;4.67;;
22282;SDS011;11310;51.528;21.204;2023-06-24T21:57:45;10.93;;;5.18;;
22282;SDS011;11310;51.528;21.204;2023-06-24T22:00:19;8.95;;;5.43;;
22282;SDS011;11310;51.528;21.204;2023-06-24T22:02:48;10.93;;;5.28;;
22282;SDS011;11310;51.528;21.204;2023-06-24T22:05:17;9.23;;;4.93;;
22282;SDS011;11310;51.528;21.204;2023-06-24T22:08:00;11.32;;;4.50;;
22282;SDS011;11310;51.528;21.204;2023-06-24T22:10:31;12.00;;;4.60;;
22282;SDS011;11310;51.528;21.204;2023-06-24T22:13:01;9.10;;;4.72;;
22282;SDS011;11310;51.528;21.204;2023-06-24T22:15:29;10.23;;;4.78;;
22282;SDS011;11310;51.528;21.204;2023-06-24T22:17:59;10.55;;;4.93;;
22282;SDS011;11310;51.528;21.204;2023-06-24T22:20:29;12.52;;;4.97;;
22282;SDS011;11310;51.528;21.204;2023-06-24T22:22:59;12.77;;;4.85;;
22282;SDS011;11310;51.528;21.204;2023-06-24T22:25:28;12.40;;;6.20;;
22282;SDS011;11310;51.528;21.204;2023-06-24T22:28:02;8.85;;;4.93;;
22282;SDS011;11310;51.528;21.204;2023-06-24T22:30:31;10.02;;;4.65;;
22282;SDS011;11310;51.528;21.204;2023-06-24T22:33:01;14.15;;;5.13;;
22282;SDS011;11310;51.528;21.204;2023-06-24T22:35:30;11.68;;;5.15;;
22282;SDS011;11310;51.528;21.204;2023-06-24T22:37:58;11.80;;;5.07;;
22282;SDS011;11310;51.528;21.204;2023-06-24T22:40:28;11.00;;;4.97;;
22282;SDS011;11310;51.528;21.204;2023-06-24T22:42:57;11.32;;;5.85;;
22282;SDS011;11310;51.528;21.204;2023-06-24T22:45:27;11.25;;;5.53;;
22282;SDS011;11310;51.528;21.204;2023-06-24T22:47:55;12.88;;;8.30;;
22282;SDS011;11310;51.528;21.204;2023-06-24T22:50:25;12.18;;;6.65;;
22282;SDS011;11310;51.528;21.204;2023-06-24T22:52:54;11.70;;;8.10;;
22282;SDS011;11310;51.528;21.204;2023-06-24T22:55:23;14.90;;;9.88;;
22282;SDS011;11310;51.528;21.204;2023-06-24T22:57:52;9.88;;;5.40;;
22282;SDS011;11310;51.528;21.204;2023-06-24T23:00:21;10.63;;;6.05;;
22282;SDS011;11310;51.528;21.204;2023-06-24T23:02:52;12.75;;;6.40;;
22282;SDS011;11310;51.528;21.204;2023-06-24T23:05:25;14.23;;;8.20;;
22282;SDS011;11310;51.528;21.204;2023-06-24T23:07:55;24.10;;;6.00;;
22282;SDS011;11310;51.528;21.204;2023-06-24T23:10:24;12.63;;;6.30;;
22282;SDS011;11310;51.528;21.204;2023-06-24T23:12:52;12.30;;;6.45;;
22282;SDS011;11310;51.528;21.204;2023-06-24T23:15:23;12.75;;;7.60;;
22282;SDS011;11310;51.528;21.204;2023-06-24T23:17:53;12.20;;;7.35;;
22282;SDS011;11310;51.528;21.204;2023-06-24T23:20:22;16.05;;;9.30;;
22282;SDS011;11310;51.528;21.204;2023-06-24T23:22:51;12.80;;;7.28;;
22282;SDS011;11310;51.528;21.204;2023-06-24T23:25:22;11.20;;;5.82;;
22282;SDS011;11310;51.528;21.204;2023-06-24T23:27:59;20.42;;;12.52;;
22282;SDS011;11310;51.528;21.204;2023-06-24T23:30:30;27.60;;;12.37;;
22282;SDS011;11310;51.528;21.204;2023-06-24T23:33:07;24.15;;;11.23;;
22282;SDS011;11310;51.528;21.204;2023-06-24T23:35:35;27.05;;;10.80;;
22282;SDS011;11310;51.528;21.204;2023-06-24T23:38:05;23.85;;;11.25;;
22282;SDS011;11310;51.528;21.204;2023-06-24T23:40:34;22.38;;;9.45;;
22282;SDS011;11310;51.528;21.204;2023-06-24T23:43:03;27.45;;;14.35;;
22282;SDS011;11310;51.528;21.204;2023-06-24T23:45:32;18.48;;;8.77;;
22282;SDS011;11310;51.528;21.204;2023-06-24T23:48:01;36.20;;;18.30;;
22282;SDS011;11310;51.528;21.204;2023-06-24T23:50:31;17.55;;;11.77;;
22282;SDS011;11310;51.528;21.204;2023-06-24T23:53:00;31.08;;;19.25;;
22282;SDS011;11310;51.528;21.204;2023-06-24T23:55:29;14.25;;;7.68;;
22282;SDS011;11310;51.528;21.204;2023-06-24T23:57:57;37.10;;;20.23;;
